Aeroporto :
LOGIN :

Iscrizione | Disclaimer

   EN    FR    IT 

 










Sommario :    VFR   VFR Marginale   IFR   IFR Intensivo   IFR Molto Intensivo
Visibilità : 
Base nubi : 
>= 8 km
>= 3000ft
5 / 8 km
1000 / 3000 ft
1500m / 5 km
500 / 1000 ft
800 / 1500m
200 / 500 ft
< 800m
< 200 ft
Simboli :   Temporali  Nebbia  Neve Forte  Precipitazioni Forti  Vento > 20 kt
SIGMETs :   Varie  Temporali  Ghiacco  Turbolenza  Onda orograficha  Ceneri Vulcaniche






- Altitudine del aeroporto : 628 ft
- Codice IATA : CMR


LFGA - Colmar-Houssen

ULTIMO METAR :
  • 281330Z AUTO 36005KT 310V040 9999 BKN035 OVC048 05/M01 Q1005

METARs OBSOLETI :
  • 281300Z AUTO 36005KT 330V030 9999 BKN030 BKN038 OVC052 04/M01 Q1005
  • 281230Z AUTO 27003KT 180V330 9999 OVC029 04/M01 Q1004
  • 281200Z AUTO VRB02KT 9999 FEW025 BKN030 OVC052 05/M01 Q1004
  • 281130Z AUTO 27004KT 220V320 9999 FEW030 BKN064 OVC150 04/M00 Q1004
  • 281100Z AUTO 24007KT 9999 SCT028 SCT040 BKN060 04/00 Q1003
  • 281030Z AUTO 27005KT 240V300 9999 FEW014 BKN036 BKN052 03/00 Q1003
  • 281000Z AUTO 30004KT 180V340 9999 BKN024 OVC033 04/M00 Q1003
  • 280930Z AUTO 32007KT 9999 BKN025 BKN031 OVC054 04/M00 Q1002
  • 280900Z AUTO 31009KT 9999 BKN027 OVC054 04/M00 Q1001

TAF N/A



MetMap, La meteo Aeronautica in un colpo d'occhio ! - Copyright ORBIFLY Dicembre 2007 - Disclaimer

ORBIFLY MET'MAP TEAM :

Programmazione e sviluppo : Alexandra Zaïnal
Concezione : Baudouin d'Aumeries
Supporto tecnico e logistico : Manuel Goepfert
Aiuto : Marc-Olivier Méhu
Aiuto per la traduzione : Arnaldo La Scala




FONTI E CREDITI :

   NOAA